Time;durP1;ratioP1;P1;durP2;ratioP2;P2;SDS_P1;SDS_P2;PMS_P1;PMS_P2;Temp;Humidity;BMP_temperature;BMP_pressure;BME280_temperature;BME280_humidity;BME280_pressure;Samples;Min_cycle;Max_cycle;Signal;HPM_P1;HPM_P2
2021/12/08 00:01:20;;;;;;;3.57;2.60;;;;;;;6.31;70.62;93629.22;5091659;28;20681;-74
2021/12/08 00:03:47;;;;;;;3.20;2.90;;;;;;;6.18;70.85;93609.22;5095674;28;20208;-74
2021/12/08 00:06:14;;;;;;;3.40;3.10;;;;;;;6.28;70.91;93631.09;5098336;28;20201;-76
2021/12/08 00:08:59;;;;;;;3.23;2.93;;;;;;;6.29;70.96;93634.44;5094928;28;20681;-76
2021/12/08 00:14:11;;;;;;;2.77;2.57;;;;;;;6.26;70.98;93648.22;5091680;28;20228;-75
2021/12/08 00:16:37;;;;;;;2.83;2.63;;;;;;;6.26;71.02;93650.75;5091224;28;20225;-75
2021/12/08 00:19:04;;;;;;;2.90;2.60;;;;;;;6.22;70.83;93644.34;5090084;28;20254;-74
2021/12/08 00:21:31;;;;;;;3.00;2.80;;;;;;;6.24;70.81;93644.19;5091461;28;20197;-75
2021/12/08 00:24:00;;;;;;;2.83;2.63;;;;;;;6.25;70.88;93650.88;5091302;28;20600;-75
2021/12/08 00:26:26;;;;;;;2.93;2.63;;;;;;;6.21;71.08;93652.06;5090997;28;20182;-75
2021/12/08 00:28:53;;;;;;;2.77;2.50;;;;;;;6.26;70.77;93660.91;5091498;28;20656;-75
2021/12/08 00:31:20;;;;;;;2.67;2.47;;;;;;;6.27;70.81;93669.31;5091499;28;20186;-76
2021/12/08 00:33:47;;;;;;;3.23;2.70;;;;;;;6.26;70.81;93660.91;5091433;28;20213;-76
2021/12/08 00:36:15;;;;;;;2.97;2.77;;;;;;;6.25;70.92;93659.28;5091369;28;20205;-75
2021/12/08 00:38:43;;;;;;;3.73;2.47;;;;;;;6.23;70.97;93662.91;5091431;28;20182;-75
2021/12/08 00:41:16;;;;;;;2.70;2.50;;;;;;;6.26;70.82;93671.06;5090532;28;20196;-75
2021/12/08 00:43:43;;;;;;;2.97;2.67;;;;;;;6.26;71.02;93671.06;5091267;28;20196;-74
2021/12/08 00:46:09;;;;;;;2.53;2.33;;;;;;;6.26;70.93;93682.91;5090160;28;20182;-75
2021/12/08 00:48:39;;;;;;;3.23;2.50;;;;;;;6.23;70.85;93676.41;5091295;28;20267;-75
2021/12/08 00:51:06;;;;;;;3.57;2.73;;;;;;;6.26;70.99;93678.66;5091060;28;20185;-77
2021/12/08 00:53:32;;;;;;;3.10;2.80;;;;;;;6.26;70.97;93682.91;5091030;28;20248;-74
2021/12/08 00:55:59;;;;;;;2.63;2.43;;;;;;;6.24;70.85;93683.06;5091058;28;20189;-75
2021/12/08 00:58:27;;;;;;;2.97;2.77;;;;;;;6.18;70.74;93660.78;5091086;28;20186;-76
2021/12/08 01:00:54;;;;;;;2.43;2.23;;;;;;;6.24;70.77;93677.19;5090938;28;20204;-76
2021/12/08 01:03:21;;;;;;;2.93;2.70;;;;;;;6.24;70.81;93677.19;5090903;28;20217;-76
2021/12/08 01:05:50;;;;;;;2.70;2.50;;;;;;;6.23;70.73;93681.47;5090997;28;20186;-75
2021/12/08 01:08:18;;;;;;;3.17;2.97;;;;;;;6.23;70.58;93686.56;5090904;28;20178;-76
2021/12/08 01:10:47;;;;;;;2.83;2.63;;;;;;;6.23;70.65;93695.91;5090845;28;20205;-76
2021/12/08 01:13:15;;;;;;;2.53;2.33;;;;;;;6.22;70.43;93691.78;5090397;28;20221;-76
2021/12/08 01:15:47;;;;;;;2.60;2.40;;;;;;;6.21;70.45;93688.41;5091011;28;20197;-74
2021/12/08 01:18:15;;;;;;;3.27;2.97;;;;;;;6.20;70.65;93686.81;5090622;28;20196;-76
2021/12/08 01:20:42;;;;;;;3.33;3.03;;;;;;;6.21;70.57;93688.41;5090610;28;20598;-76
2021/12/08 01:23:09;;;;;;;3.17;2.87;;;;;;;6.20;70.66;93689.34;5090293;28;20193;-76
2021/12/08 01:25:36;;;;;;;3.07;2.73;;;;;;;6.20;70.24;93684.28;5090472;28;20660;-76
2021/12/08 01:28:03;;;;;;;3.27;2.97;;;;;;;6.19;70.41;93686.97;5090411;28;20201;-74
2021/12/08 01:30:29;;;;;;;4.43;3.13;;;;;;;6.20;70.55;93684.28;5090461;28;20189;-75
2021/12/08 01:32:58;;;;;;;4.13;2.77;;;;;;;6.18;70.52;93681.09;5090252;28;20193;-74
2021/12/08 01:35:25;;;;;;;3.17;2.87;;;;;;;6.18;70.63;93685.38;5090276;28;20186;-75
2021/12/08 01:37:52;;;;;;;5.93;3.03;;;;;;;6.19;70.30;93689.50;5090630;28;20193;-75
2021/12/08 01:40:19;;;;;;;3.27;2.97;;;;;;;6.19;70.22;93686.97;5090100;28;20196;-73
2021/12/08 01:42:50;;;;;;;3.47;3.17;;;;;;;6.08;70.08;93664.25;5090497;28;20680;-76
2021/12/08 01:48:07;;;;;;;7.97;6.57;;;;;;;6.16;70.02;93693.09;5089784;28;20204;-75
2021/12/08 01:50:35;;;;;;;8.87;6.20;;;;;;;6.16;69.96;93697.38;5090659;28;20197;-73
2021/12/08 01:53:03;;;;;;;6.97;5.90;;;;;;;6.18;69.80;93700.59;5089814;28;20189;-75
2021/12/08 01:55:30;;;;;;;6.90;5.20;;;;;;;6.16;69.87;93703.25;5089835;28;20198;-75
2021/12/08 01:57:57;;;;;;;5.40;4.63;;;;;;;6.17;69.64;93704.06;5089158;28;20181;-74
2021/12/08 02:00:28;;;;;;;5.00;4.50;;;;;;;6.15;70.07;93714.34;5089718;28;20671;-74
2021/12/08 02:02:54;;;;;;;5.67;4.63;;;;;;;6.13;69.97;93710.34;5090370;28;20189;-74
2021/12/08 02:05:23;;;;;;;4.03;3.73;;;;;;;6.16;69.90;93710.06;5090033;28;20201;-74
2021/12/08 02:07:50;;;;;;;4.67;3.97;;;;;;;6.15;69.96;93726.25;5090049;28;20307;-74
2021/12/08 02:10:17;;;;;;;4.87;4.40;;;;;;;6.16;69.93;93712.59;5089616;28;20190;-73
2021/12/08 02:12:44;;;;;;;5.27;4.77;;;;;;;6.15;70.05;93716.88;5089783;28;20185;-74
2021/12/08 02:15:14;;;;;;;4.97;4.17;;;;;;;6.17;69.82;93724.34;5089173;28;20229;-75
2021/12/08 02:17:41;;;;;;;5.40;4.80;;;;;;;6.08;70.00;93710.75;5089869;28;20189;-75
2021/12/08 02:20:12;;;;;;;6.23;4.47;;;;;;;6.17;70.11;93724.34;5089484;28;20190;-74
2021/12/08 02:22:40;;;;;;;5.17;4.30;;;;;;;6.16;70.01;93726.09;5089887;28;20208;-74
2021/12/08 02:25:09;;;;;;;5.03;4.53;;;;;;;6.12;69.95;93719.69;5088942;28;20233;-74
2021/12/08 02:27:37;;;;;;;5.10;4.60;;;;;;;6.18;69.99;93728.53;5089741;28;20239;-74
2021/12/08 02:30:13;;;;;;;6.87;4.77;;;;;;;6.15;70.17;93728.78;5089490;28;20235;-73
2021/12/08 02:46:50;;;;;;;6.87;5.27;;;;;;;6.15;70.43;93752.41;5089783;28;20528;-74
2021/12/08 02:49:20;;;;;;;7.13;5.73;;;;;;;6.15;70.47;93751.63;5089478;28;20189;-73
2021/12/08 02:51:48;;;;;;;8.50;6.70;;;;;;;6.15;70.64;93746.53;5089405;28;20562;-74
2021/12/08 02:54:17;;;;;;;8.43;6.70;;;;;;;6.12;70.63;93734.91;5089420;28;20209;-75
2021/12/08 02:56:43;;;;;;;7.53;6.13;;;;;;;5.90;70.43;93702.97;5089072;28;20186;-73
2021/12/08 02:59:10;;;;;;;10.20;7.17;;;;;;;6.16;70.56;93743.88;5089838;28;20313;-74
2021/12/08 03:01:39;;;;;;;6.93;6.23;;;;;;;6.15;70.52;93741.47;5089146;28;20182;-75
2021/12/08 03:04:07;;;;;;;8.37;6.83;;;;;;;6.12;70.40;93741.72;5089950;28;20277;-74
2021/12/08 03:06:35;;;;;;;8.23;6.53;;;;;;;6.18;70.30;93741.22;5089480;28;20190;-75
2021/12/08 03:09:02;;;;;;;9.07;6.93;;;;;;;6.14;70.38;93745.75;5090656;28;20274;-74
2021/12/08 03:11:30;;;;;;;9.13;7.40;;;;;;;6.16;70.34;93743.88;5093053;28;20645;-75
2021/12/08 03:14:05;;;;;;;10.97;8.17;;;;;;;6.16;70.29;93746.41;5092777;28;20221;-76
2021/12/08 03:16:32;;;;;;;8.93;7.13;;;;;;;6.16;70.23;93741.31;5093267;28;20640;-76
2021/12/08 03:18:59;;;;;;;10.80;8.23;;;;;;;6.17;70.05;93745.47;5093162;28;20182;-75
2021/12/08 03:21:30;;;;;;;9.97;8.00;;;;;;;6.17;70.40;93747.19;5093020;28;20280;-74
2021/12/08 03:24:10;;;;;;;10.90;8.30;;;;;;;6.14;70.47;93744.94;5092788;28;20237;-76
2021/12/08 03:26:47;;;;;;;11.57;8.07;;;;;;;6.17;70.52;93755.63;5092653;28;20189;-74
2021/12/08 03:29:27;;;;;;;11.07;9.07;;;;;;;6.17;70.64;93760.69;5093279;28;20188;-74
2021/12/08 03:32:03;;;;;;;10.07;7.63;;;;;;;6.18;70.35;93769.13;5093048;28;20200;-75
2021/12/08 03:34:31;;;;;;;10.90;8.37;;;;;;;6.18;70.46;93766.59;5093219;28;20213;-76
2021/12/08 03:36:58;;;;;;;11.40;8.97;;;;;;;6.17;70.24;93768.31;5092818;28;20189;-74
2021/12/08 03:39:25;;;;;;;11.50;8.40;;;;;;;6.17;70.20;93775.91;5091980;28;20664;-75
2021/12/08 03:41:53;;;;;;;12.73;8.53;;;;;;;6.16;70.33;93774.31;5091977;28;20678;-73
2021/12/08 03:44:20;;;;;;;9.90;8.17;;;;;;;6.17;70.41;93778.47;5092212;28;20189;-76
2021/12/08 03:46:47;;;;;;;11.27;8.40;;;;;;;6.18;70.42;93781.81;5091921;28;20201;-75
2021/12/08 03:49:17;;;;;;;10.97;8.53;;;;;;;6.18;70.45;93781.81;5092214;28;20221;-74
2021/12/08 03:51:44;;;;;;;10.70;8.30;;;;;;;6.18;70.32;93776.75;5092049;28;20695;-75
2021/12/08 03:54:12;;;;;;;11.67;8.80;;;;;;;6.17;70.36;93788.59;5091841;28;20217;-74
2021/12/08 03:56:40;;;;;;;14.60;8.90;;;;;;;6.17;70.33;93793.69;5091853;28;20193;-73
2021/12/08 03:59:08;;;;;;;12.00;9.37;;;;;;;6.18;70.33;93789.44;5092407;28;20330;-74
2021/12/08 04:01:36;;;;;;;11.63;9.63;;;;;;;6.19;70.46;93796.13;5095228;28;20189;-74
2021/12/08 04:04:06;;;;;;;14.07;9.87;;;;;;;6.20;70.43;93797.72;5097739;28;20193;-74
2021/12/08 04:06:40;;;;;;;11.17;8.80;;;;;;;6.19;70.47;93802.00;5091885;28;20190;-75
2021/12/08 04:09:16;;;;;;;13.17;9.13;;;;;;;6.20;70.48;93801.03;5091643;28;20182;-73
2021/12/08 04:11:43;;;;;;;12.80;9.57;;;;;;;6.19;70.31;93804.53;5091708;28;20189;-76
2021/12/08 04:14:13;;;;;;;12.80;9.27;;;;;;;6.16;70.42;93796.38;5091143;28;20597;-75
2021/12/08 04:16:44;;;;;;;11.77;9.00;;;;;;;6.21;70.49;93806.91;5091511;28;20189;-74
2021/12/08 04:19:12;;;;;;;12.90;9.13;;;;;;;6.13;70.57;93794.91;5091352;28;20197;-73
2021/12/08 04:21:41;;;;;;;12.93;9.50;;;;;;;6.21;70.72;93802.63;5090349;28;20200;-74
2021/12/08 04:24:09;;;;;;;11.97;10.17;;;;;;;6.18;70.50;93800.38;5091309;28;20221;-74
2021/12/08 04:26:40;;;;;;;12.27;9.17;;;;;;;6.09;70.58;93798.66;5091426;28;20190;-73
2021/12/08 04:29:10;;;;;;;11.80;9.50;;;;;;;6.22;70.45;93816.97;5091227;28;20186;-74
2021/12/08 04:31:41;;;;;;;11.70;8.80;;;;;;;6.22;70.25;93814.41;5091523;28;20201;-74
2021/12/08 04:34:13;;;;;;;11.47;8.80;;;;;;;6.23;70.15;93817.75;5091101;28;20241;-73
2021/12/08 04:36:45;;;;;;;12.73;9.57;;;;;;;6.21;70.10;93828.03;5091561;28;20201;-74
2021/12/08 04:39:18;;;;;;;12.67;9.43;;;;;;;6.21;70.14;93829.75;5091277;28;20216;-75
2021/12/08 04:41:50;;;;;;;14.77;9.13;;;;;;;6.22;70.30;93839.00;5091264;28;20273;-76
2021/12/08 04:44:26;;;;;;;14.70;8.63;;;;;;;6.22;70.18;93841.53;5090909;28;20196;-74
2021/12/08 04:47:27;;;;;;;11.20;9.20;;;;;;;6.23;70.26;93845.69;5090749;28;20185;-74
2021/12/08 04:52:51;;;;;;;12.50;9.67;;;;;;;6.01;70.37;93814.53;5090977;28;20189;-74
2021/12/08 05:04:03;;;;;;;12.53;9.27;;;;;;;6.02;70.25;93843.25;5090943;28;20201;-74
2021/12/08 05:06:44;;;;;;;15.97;10.37;;;;;;;6.21;70.40;93867.84;5090948;28;20566;-74
2021/12/08 05:09:16;;;;;;;11.07;8.83;;;;;;;6.16;70.57;93875.06;5090723;28;20272;-75
2021/12/08 05:11:46;;;;;;;12.43;9.03;;;;;;;6.22;70.72;93875.34;5090636;28;20189;-75
2021/12/08 05:14:18;;;;;;;12.07;9.27;;;;;;;6.23;70.67;93878.69;5090710;28;20290;-76
2021/12/08 05:16:48;;;;;;;13.17;9.30;;;;;;;6.25;70.49;93889.50;5090742;28;20201;-75
2021/12/08 05:19:20;;;;;;;11.63;9.50;;;;;;;6.22;70.22;93882.97;5090558;28;20196;-75
2021/12/08 05:21:50;;;;;;;13.30;9.70;;;;;;;6.23;70.39;93893.91;5090716;28;20201;-76
2021/12/08 05:24:21;;;;;;;16.87;11.00;;;;;;;6.23;70.45;93894.72;5090329;28;20228;-74
2021/12/08 05:26:52;;;;;;;12.57;9.97;;;;;;;6.23;70.28;93897.25;5090167;28;20190;-74
2021/12/08 05:29:23;;;;;;;12.90;9.87;;;;;;;6.22;70.29;93900.72;5090202;28;20280;-74
2021/12/08 05:31:52;;;;;;;10.97;8.63;;;;;;;6.21;70.27;93898.31;5090377;28;20178;-79
2021/12/08 05:34:21;;;;;;;13.70;10.17;;;;;;;6.21;70.62;93896.56;5089871;28;20196;-75
2021/12/08 05:36:49;;;;;;;13.73;9.93;;;;;;;6.15;70.81;93888.69;5090853;28;20186;-74
2021/12/08 05:39:20;;;;;;;14.93;10.23;;;;;;;6.22;70.65;93899.94;5090619;28;20204;-74
2021/12/08 05:41:50;;;;;;;14.53;10.30;;;;;;;6.22;70.50;93898.19;5081090;28;20208;-73
2021/12/08 05:44:17;;;;;;;17.47;10.57;;;;;;;6.23;70.55;93904.88;5066973;28;20281;-74
2021/12/08 05:46:48;;;;;;;14.50;10.87;;;;;;;4.78;70.35;93674.50;5067517;28;20217;-72
2021/12/08 05:49:18;;;;;;;16.60;10.87;;;;;;;6.24;70.49;93913.28;5067743;28;20684;-76
2021/12/08 05:51:48;;;;;;;14.13;10.67;;;;;;;6.22;70.52;93915.97;5067305;28;20186;-74
2021/12/08 05:54:21;;;;;;;13.57;10.67;;;;;;;5.91;70.25;93866.94;5067024;28;20197;-80
2021/12/08 05:56:50;;;;;;;15.67;10.87;;;;;;;6.20;70.42;93919.56;5067793;28;20190;-77
2021/12/08 05:59:17;;;;;;;13.77;10.57;;;;;;;6.20;70.38;93917.81;5067372;28;20198;-75
2021/12/08 06:01:52;;;;;;;12.97;10.70;;;;;;;6.14;70.80;93904.84;5085727;28;20181;-77
2021/12/08 06:04:20;;;;;;;13.20;9.83;;;;;;;6.21;70.80;93919.41;5087380;28;20703;-79
2021/12/08 06:06:49;;;;;;;19.03;11.60;;;;;;;6.22;70.98;93928.66;5084730;28;20571;-74
2021/12/08 06:09:19;;;;;;;17.90;12.37;;;;;;;6.02;70.89;93891.47;5087011;28;20412;-75
2021/12/08 06:11:46;;;;;;;15.30;11.40;;;;;;;6.24;70.93;93931.06;5087621;28;20247;-75
2021/12/08 06:14:16;;;;;;;15.83;11.57;;;;;;;6.25;70.56;93942.81;5086958;28;20196;-77
2021/12/08 06:16:45;;;;;;;16.23;11.13;;;;;;;6.25;70.57;93947.88;5087487;28;20196;-75
2021/12/08 06:19:14;;;;;;;14.83;10.73;;;;;;;6.28;70.96;93947.63;5086729;28;20188;-77
2021/12/08 06:21:42;;;;;;;8.67;6.67;;;;;;;7.36;100.00;93947.53;5087635;28;20193;-75
2021/12/08 06:24:13;;;;;;;15.67;11.87;;;;;;;8.13;100.00;93953.34;5083347;28;20228;-76
2021/12/08 06:26:40;;;;;;;15.63;10.30;;;;;;;8.28;100.00;93951.91;5085832;28;20275;-74
2021/12/08 06:29:11;;;;;;;11.07;9.30;;;;;;;8.26;100.00;93949.50;5085565;28;20682;-77
2021/12/08 06:31:38;;;;;;;15.07;9.50;;;;;;;8.22;100.00;93947.38;5085631;28;20200;-72
2021/12/08 06:34:06;;;;;;;13.23;9.57;;;;;;;8.14;100.00;93954.94;5085965;28;20200;-73
2021/12/08 06:36:40;;;;;;;13.30;9.33;;;;;;;8.04;97.71;93960.06;5085576;28;20240;-72
2021/12/08 06:39:13;;;;;;;14.33;10.20;;;;;;;7.84;91.88;93944.06;5086085;28;20223;-73
2021/12/08 06:41:43;;;;;;;11.67;9.40;;;;;;;7.80;86.31;93963.09;5085524;28;20201;-72
2021/12/08 06:44:14;;;;;;;13.23;9.40;;;;;;;7.69;83.61;93964.06;5086540;28;20204;-76
2021/12/08 06:46:43;;;;;;;12.00;9.70;;;;;;;7.58;80.68;93961.69;5090104;28;20194;-75
2021/12/08 06:49:13;;;;;;;15.47;8.93;;;;;;;7.46;78.24;93958.47;5089952;28;20240;-73
2021/12/08 06:51:43;;;;;;;15.60;10.67;;;;;;;7.32;76.92;93946.19;5089578;28;20198;-71
2021/12/08 06:54:19;;;;;;;13.03;9.70;;;;;;;7.32;76.37;93955.56;5087091;28;20194;-73
2021/12/08 06:56:53;;;;;;;12.57;9.83;;;;;;;7.22;75.29;93961.47;5087974;28;20606;-72
2021/12/08 06:59:23;;;;;;;13.43;9.43;;;;;;;7.15;74.96;93952.78;5089175;28;20881;-72
2021/12/08 07:02:01;;;;;;;12.00;9.50;;;;;;;7.08;74.36;93954.28;5089343;28;20567;-72
2021/12/08 07:04:34;;;;;;;13.20;9.27;;;;;;;7.02;74.03;93950.50;5089393;28;20192;-72
2021/12/08 07:07:09;;;;;;;10.60;9.10;;;;;;;6.99;74.09;93963.50;5089302;28;20313;-73
2021/12/08 07:09:42;;;;;;;13.70;9.83;;;;;;;6.94;73.80;93964.81;5088963;28;20220;-72
2021/12/08 07:12:13;;;;;;;12.50;9.73;;;;;;;6.73;73.63;93939.53;5087597;28;20196;-71
2021/12/08 07:14:43;;;;;;;12.97;9.97;;;;;;;6.89;73.65;93967.75;5088882;28;20645;-70
2021/12/08 07:17:14;;;;;;;12.43;8.43;;;;;;;6.86;73.36;93962.94;5089168;28;20186;-74
2021/12/08 07:19:49;;;;;;;13.43;9.70;;;;;;;6.85;73.21;93975.78;5089211;28;20193;-76
2021/12/08 07:22:20;;;;;;;11.23;8.97;;;;;;;6.84;73.24;93979.28;5089277;28;20209;-74
2021/12/08 07:24:52;;;;;;;11.87;9.27;;;;;;;6.86;72.85;93987.56;5088577;28;20229;-75
2021/12/08 07:27:21;;;;;;;12.00;9.30;;;;;;;6.84;72.44;93986.91;5089389;28;20186;-73
2021/12/08 07:29:49;;;;;;;13.47;10.07;;;;;;;6.82;72.12;93987.00;5088596;28;20200;-72
2021/12/08 07:32:20;;;;;;;11.97;9.20;;;;;;;6.82;71.76;93993.84;5088977;28;20197;-71
2021/12/08 07:34:50;;;;;;;11.77;8.63;;;;;;;6.80;71.45;93988.91;5088391;28;20243;-71
2021/12/08 07:37:20;;;;;;;9.87;8.47;;;;;;;6.80;70.94;94004.16;5088992;28;20204;-72
2021/12/08 07:39:52;;;;;;;11.67;8.60;;;;;;;6.68;70.84;93985.66;5088627;28;20229;-72
2021/12/08 07:42:22;;;;;;;13.27;9.30;;;;;;;6.81;70.75;94007.47;5088799;28;20196;-73
2021/12/08 07:44:53;;;;;;;13.87;8.63;;;;;;;6.81;70.47;94008.28;5088279;28;20711;-74
2021/12/08 07:47:23;;;;;;;11.30;8.90;;;;;;;6.82;70.23;94012.41;5088167;28;20194;-73
2021/12/08 07:49:56;;;;;;;13.93;9.93;;;;;;;6.82;70.02;94009.88;5088753;28;20193;-75
2021/12/08 07:52:28;;;;;;;12.10;8.93;;;;;;;6.78;70.02;94011.91;5089138;28;20197;-75
2021/12/08 07:54:57;;;;;;;13.23;9.90;;;;;;;6.86;70.00;94023.13;5088889;28;20182;-76
2021/12/08 07:57:29;;;;;;;13.80;9.50;;;;;;;6.87;69.86;94024.75;5088885;28;20181;-76
2021/12/08 07:59:59;;;;;;;15.27;9.63;;;;;;;6.90;69.73;94021.94;5095967;28;20205;-80
2021/12/08 08:02:29;;;;;;;14.83;9.20;;;;;;;6.92;69.56;94022.63;5094031;28;20547;-74
2021/12/08 08:04:59;;;;;;;7.07;5.20;;;;;;;7.29;100.00;94027.84;5089253;28;20561;-79
2021/12/08 08:07:27;;;;;;;12.60;9.83;;;;;;;8.11;100.00;94016.31;5089957;28;20204;-74
2021/12/08 08:10:00;;;;;;;12.90;9.10;;;;;;;8.48;100.00;94029.88;5086354;28;20197;-76
2021/12/08 08:12:30;;;;;;;10.17;8.33;;;;;;;8.59;100.00;94038.25;5088092;28;20208;-76
2021/12/08 08:15:00;;;;;;;12.03;8.53;;;;;;;8.56;99.10;94038.56;5086789;28;20202;-75
2021/12/08 08:17:35;;;;;;;12.00;9.13;;;;;;;8.56;93.64;94043.66;5090957;28;20286;-76
2021/12/08 08:20:07;;;;;;;13.00;9.73;;;;;;;8.46;88.68;94062.34;5090957;28;20237;-75
2021/12/08 08:22:34;;;;;;;14.70;9.80;;;;;;;8.37;84.03;94037.69;5090821;28;20197;-75
2021/12/08 08:25:06;;;;;;;13.73;9.87;;;;;;;8.32;80.82;94046.66;5091606;28;20253;-75
2021/12/08 08:27:33;;;;;;;14.97;10.27;;;;;;;8.09;79.10;94024.09;5090252;28;20611;-74
2021/12/08 08:30:02;;;;;;;12.53;10.03;;;;;;;8.17;77.08;94041.25;5090006;28;20197;-75
2021/12/08 08:32:34;;;;;;;14.67;10.47;;;;;;;8.15;75.50;94045.66;5090313;28;20190;-77
2021/12/08 08:35:11;;;;;;;14.50;10.20;;;;;;;8.08;74.33;94044.63;5089697;28;20186;-76
2021/12/08 08:37:39;;;;;;;13.93;9.83;;;;;;;7.99;73.50;94038.63;5088266;28;20186;-76
2021/12/08 08:40:12;;;;;;;16.67;10.33;;;;;;;8.00;73.35;94040.22;5089285;28;20205;-73
2021/12/08 08:42:42;;;;;;;11.00;8.90;;;;;;;7.95;72.92;94043.19;5089969;28;20181;-73
2021/12/08 08:45:13;;;;;;;15.07;10.10;;;;;;;7.93;72.26;94044.25;5089561;28;20198;-75
2021/12/08 08:47:44;;;;;;;12.90;9.77;;;;;;;7.91;71.67;94041.06;5090041;28;20186;-75
2021/12/08 08:50:17;;;;;;;15.43;10.23;;;;;;;7.89;71.41;94048.00;5089840;28;20186;-76
2021/12/08 08:52:47;;;;;;;14.60;10.27;;;;;;;7.82;70.79;94029.94;5088127;28;20247;-74
2021/12/08 08:55:19;;;;;;;13.50;9.40;;;;;;;7.86;70.41;94038.91;5089963;28;20186;-74
2021/12/08 08:57:47;;;;;;;14.47;10.53;;;;;;;7.85;70.15;94034.75;5091464;28;20196;-75
2021/12/08 09:00:22;;;;;;;14.20;10.37;;;;;;;7.84;69.72;94035.69;5089688;28;20204;-77
2021/12/08 09:02:53;;;;;;;15.70;10.20;;;;;;;7.82;69.33;94029.16;5090601;28;20586;-74
2021/12/08 09:05:23;;;;;;;12.47;9.17;;;;;;;7.79;68.93;94017.50;5088645;28;20199;-73
2021/12/08 09:07:53;;;;;;;13.83;10.23;;;;;;;7.87;68.71;94016.81;5089780;28;20193;-74
2021/12/08 09:10:36;;;;;;;11.03;9.50;;;;;;;7.89;68.48;94022.53;5089776;28;20201;-74
2021/12/08 09:13:06;;;;;;;15.03;10.30;;;;;;;7.94;68.21;94016.09;5090674;28;20186;-74
2021/12/08 09:15:36;;;;;;;14.97;9.77;;;;;;;7.96;68.04;94013.44;5091748;28;20228;-73
2021/12/08 09:18:08;;;;;;;11.97;9.93;;;;;;;7.99;67.87;94011.41;5094110;28;20204;-73
2021/12/08 09:20:40;;;;;;;15.33;10.27;;;;;;;8.04;67.59;94004.16;5093801;28;20220;-72
2021/12/08 09:23:12;;;;;;;13.17;9.87;;;;;;;8.11;67.18;93993.41;5093188;28;20185;-76
2021/12/08 09:25:45;;;;;;;12.27;9.23;;;;;;;8.15;67.00;93985.34;5093047;28;20186;-73
2021/12/08 09:28:14;;;;;;;13.77;9.73;;;;;;;8.25;66.65;93991.22;5092390;28;20185;-75
2021/12/08 09:30:45;;;;;;;14.43;10.33;;;;;;;8.35;66.55;93986.06;5093667;28;20205;-76
2021/12/08 09:33:15;;;;;;;14.57;10.80;;;;;;;8.44;66.19;93982.69;5095841;28;20200;-74
2021/12/08 09:35:47;;;;;;;13.43;10.30;;;;;;;8.53;65.86;93989.47;5091633;28;20209;-75
2021/12/08 09:38:21;;;;;;;14.03;11.10;;;;;;;8.61;65.71;93982.88;5087572;28;20190;-75
2021/12/08 09:40:57;;;;;;;12.60;10.53;;;;;;;8.74;65.60;93985.88;5089653;28;20620;-75
2021/12/08 09:43:29;;;;;;;15.93;11.37;;;;;;;8.82;65.25;93975.78;5089280;28;20193;-74
2021/12/08 09:45:59;;;;;;;15.97;11.93;;;;;;;8.95;64.96;93977.97;5089151;28;20197;-72
2021/12/08 09:48:29;;;;;;;14.97;11.60;;;;;;;8.96;64.73;93980.34;5088738;28;20208;-76
2021/12/08 09:50:57;;;;;;;15.17;11.43;;;;;;;9.08;64.58;93972.50;5089588;28;20193;-74
2021/12/08 09:53:26;;;;;;;14.33;10.83;;;;;;;9.19;64.33;93975.59;5088918;28;20185;-74
2021/12/08 09:55:56;;;;;;;12.00;9.83;;;;;;;9.27;64.26;93977.44;5088940;28;20708;-75
2021/12/08 09:58:23;;;;;;;13.50;10.83;;;;;;;9.27;64.03;93962.91;5088082;28;20582;-74
2021/12/08 10:00:55;;;;;;;16.70;11.07;;;;;;;9.39;63.74;93976.25;5089206;28;20201;-75
2021/12/08 10:03:22;;;;;;;12.03;9.83;;;;;;;9.49;63.45;93969.28;5088315;28;20198;-76
2021/12/08 10:05:49;;;;;;;13.80;10.33;;;;;;;9.55;63.44;93978.94;5088774;28;20189;-73
2021/12/08 10:08:17;;;;;;;12.80;10.50;;;;;;;9.60;63.30;93972.56;5088799;28;20193;-76
2021/12/08 10:10:47;;;;;;;12.53;10.10;;;;;;;9.67;62.98;93971.84;5088856;28;20189;-74
2021/12/08 10:13:16;;;;;;;13.23;10.83;;;;;;;9.72;62.84;93974.72;5088783;28;20193;-74
2021/12/08 10:15:44;;;;;;;15.40;10.67;;;;;;;9.72;62.55;93973.94;5088344;28;20292;-75
2021/12/08 10:18:11;;;;;;;15.20;11.17;;;;;;;9.83;62.56;93985.63;5085183;28;20205;-75
2021/12/08 10:20:40;;;;;;;12.13;9.47;;;;;;;9.87;62.21;93986.94;5089561;28;20189;-74
2021/12/08 10:23:14;;;;;;;13.60;11.03;;;;;;;9.86;62.27;93975.13;5091043;28;20194;-76
2021/12/08 10:25:44;;;;;;;13.53;10.30;;;;;;;9.94;62.20;93975.97;5092268;28;20205;-76
2021/12/08 10:28:17;;;;;;;13.63;10.30;;;;;;;9.99;61.95;93976.31;5093184;28;20198;-73
2021/12/08 10:30:48;;;;;;;13.93;10.07;;;;;;;10.02;61.89;93973.47;5092396;28;20782;-75
2021/12/08 10:33:50;;;;;;;13.27;10.90;;;;;;;10.03;61.84;93972.50;5093139;28;20197;-75
2021/12/08 10:36:35;;;;;;;12.50;10.37;;;;;;;10.08;61.77;93977.16;5091633;28;20217;-75
2021/12/08 10:39:07;;;;;;;12.63;10.47;;;;;;;10.12;61.58;93982.78;5092509;28;20198;-76
2021/12/08 10:42:00;;;;;;;15.63;11.30;;;;;;;10.17;61.52;93971.13;5092781;28;20194;-75
2021/12/08 10:44:36;;;;;;;14.87;11.43;;;;;;;10.27;61.32;93968.50;5090142;28;20190;-73
2021/12/08 10:47:04;;;;;;;14.03;11.07;;;;;;;10.16;61.13;93935.53;5092505;28;20182;-73
2021/12/08 10:55:02;;;;;;;15.33;11.77;;;;;;;10.78;60.21;93972.66;5092185;28;20322;-74
2021/12/08 10:57:31;;;;;;;19.30;13.03;;;;;;;10.62;59.97;93929.16;5091885;28;20244;-74
2021/12/08 11:00:07;;;;;;;16.87;13.23;;;;;;;10.96;59.72;93964.03;5091967;28;20632;-74
2021/12/08 11:02:40;;;;;;;16.83;13.43;;;;;;;11.03;59.52;93960.69;5091593;28;20194;-75
2021/12/08 11:05:29;;;;;;;15.70;13.10;;;;;;;11.08;59.28;93960.22;5091855;28;20781;-75
2021/12/08 11:08:03;;;;;;;13.90;10.80;;;;;;;11.13;58.88;93950.31;5088291;28;20551;-73
2021/12/08 11:10:31;;;;;;;16.97;11.43;;;;;;;11.18;59.02;93966.00;5091839;28;20648;-74
2021/12/08 11:12:59;;;;;;;17.30;13.13;;;;;;;11.26;58.44;93973.66;5091947;28;20193;-75
2021/12/08 11:15:30;;;;;;;13.67;11.00;;;;;;;11.28;58.55;93973.53;5090213;28;20198;-76
2021/12/08 11:18:14;;;;;;;16.03;11.03;;;;;;;11.36;58.03;93965.06;5092100;28;20225;-75
2021/12/08 11:20:47;;;;;;;13.93;10.33;;;;;;;11.15;57.92;93934.81;5089949;28;20246;-73
2021/12/08 11:23:17;;;;;;;14.77;11.27;;;;;;;11.47;57.61;93975.75;5091853;28;20209;-74
2021/12/08 11:25:46;;;;;;;14.37;10.97;;;;;;;11.56;57.41;93958.63;5091874;28;20193;-73
2021/12/08 11:28:25;;;;;;;16.27;11.83;;;;;;;11.45;57.07;93928.25;5091982;28;20627;-74
2021/12/08 11:30:54;;;;;;;12.33;9.83;;;;;;;11.67;56.85;93965.97;5091599;28;20204;-74
2021/12/08 11:33:24;;;;;;;14.20;10.40;;;;;;;11.61;57.04;93968.38;5091943;28;20198;-77
2021/12/08 11:36:08;;;;;;;11.63;9.77;;;;;;;11.59;56.92;93968.53;5091666;28;20189;-75
2021/12/08 11:38:35;;;;;;;12.80;10.13;;;;;;;11.41;56.30;93940.56;5090125;28;20186;-78
2021/12/08 11:41:02;;;;;;;13.47;10.20;;;;;;;11.59;56.45;93972.88;5091650;28;20196;-75
2021/12/08 11:43:30;;;;;;;12.60;10.60;;;;;;;11.52;56.32;93975.25;5091483;28;20193;-74
2021/12/08 11:46:14;;;;;;;15.90;11.73;;;;;;;11.45;56.42;93974.31;5091284;28;20221;-77
2021/12/08 11:48:57;;;;;;;12.40;10.73;;;;;;;11.36;56.32;93981.22;5089200;28;20193;-74
2021/12/08 11:51:24;;;;;;;14.03;10.93;;;;;;;11.27;56.58;93982.97;5094212;28;20181;-75
2021/12/08 11:53:52;;;;;;;13.47;10.77;;;;;;;11.24;56.33;93985.84;5098058;28;20312;-76
2021/12/08 11:56:37;;;;;;;15.77;12.23;;;;;;;11.31;56.22;93983.41;5093102;28;20206;-73
2021/12/08 11:59:07;;;;;;;17.67;12.07;;;;;;;11.39;56.25;93990.31;5091169;28;20193;-74
2021/12/08 12:01:36;;;;;;;17.30;12.70;;;;;;;11.50;55.79;93982.31;5090983;28;20194;-74
2021/12/08 12:04:05;;;;;;;16.50;12.90;;;;;;;11.62;55.74;93985.38;5090599;28;20747;-75
2021/12/08 12:06:34;;;;;;;15.13;11.80;;;;;;;11.69;55.56;93997.34;5088324;28;20197;-76
2021/12/08 12:09:01;;;;;;;18.97;12.17;;;;;;;11.61;55.57;93968.38;5088277;28;20185;-74
2021/12/08 12:11:29;;;;;;;13.37;11.10;;;;;;;11.77;55.42;93993.97;5091418;28;20186;-75
2021/12/08 12:13:58;;;;;;;13.10;11.20;;;;;;;11.79;55.40;93995.44;5086728;28;20209;-74
2021/12/08 12:16:26;;;;;;;13.07;10.20;;;;;;;11.80;55.41;93996.22;5090659;28;20588;-76
2021/12/08 12:18:58;;;;;;;14.10;11.23;;;;;;;11.81;55.07;94001.19;5090532;28;20197;-76
2021/12/08 12:21:31;;;;;;;12.17;9.93;;;;;;;11.83;55.18;93995.13;5090803;28;20284;-74
2021/12/08 12:24:11;;;;;;;11.63;9.30;;;;;;;11.78;55.10;93995.56;5089897;28;20225;-75